sensor_id;sensor_type;location;lat;lon;timestamp;pressure;altitude;pressure_sealevel;temperature;humidity
20636;BME280;10477;43.198;27.916;2022-08-14T00:01:48;106223.58;;;-143.34;100.00
20636;BME280;10477;43.198;27.916;2022-08-14T00:04:15;106482.63;;;-143.34;100.00
20636;BME280;10477;43.198;27.916;2022-08-14T00:06:43;106612.16;;;-143.34;100.00
20636;BME280;10477;43.198;27.916;2022-08-14T00:09:11;106741.70;;;-143.34;100.00
20636;BME280;10477;43.198;27.916;2022-08-14T00:11:40;107000.80;;;-143.34;100.00
20636;BME280;10477;43.198;27.916;2022-08-14T00:14:09;107389.48;;;-143.34;100.00
20636;BME280;10477;43.198;27.916;2022-08-14T00:16:38;107907.78;;;-143.34;100.00
20636;BME280;10477;43.198;27.916;2022-08-14T00:19:06;108426.16;;;-143.34;100.00
20636;BME280;10477;43.198;27.916;2022-08-14T00:21:33;108814.99;;;-143.34;100.00
20636;BME280;10477;43.198;27.916;2022-08-14T00:24:03;109074.24;;;-143.34;100.00
20636;BME280;10477;43.198;27.916;2022-08-14T00:26:30;109203.88;;;-143.34;100.00
20636;BME280;10477;43.198;27.916;2022-08-14T00:28:58;109333.50;;;-143.34;100.00
20636;BME280;10477;43.198;27.916;2022-08-14T00:31:26;109463.14;;;-143.34;100.00
20636;BME280;10477;43.198;27.916;2022-08-14T00:33:55;109463.14;;;-143.34;100.00
20636;BME280;10477;43.198;27.916;2022-08-14T00:36:23;109074.24;;;-143.34;100.00
20636;BME280;10477;43.198;27.916;2022-08-14T00:38:51;108814.99;;;-143.34;100.00
20636;BME280;10477;43.198;27.916;2022-08-14T00:41:19;108814.99;;;-143.34;100.00
20636;BME280;10477;43.198;27.916;2022-08-14T00:43:48;108814.99;;;-143.34;100.00
20636;BME280;10477;43.198;27.916;2022-08-14T00:46:16;108685.38;;;-143.34;100.00
20636;BME280;10477;43.198;27.916;2022-08-14T00:48:43;108814.99;;;-143.34;100.00
20636;BME280;10477;43.198;27.916;2022-08-14T00:51:11;108944.62;;;-143.34;100.00
20636;BME280;10477;43.198;27.916;2022-08-14T00:53:39;108814.99;;;-143.34;100.00
20636;BME280;10477;43.198;27.916;2022-08-14T00:56:08;108685.38;;;-143.34;100.00
20636;BME280;10477;43.198;27.916;2022-08-14T00:58:36;108426.16;;;-143.34;100.00
20636;BME280;10477;43.198;27.916;2022-08-14T01:01:10;108166.95;;;-143.34;100.00
20636;BME280;10477;43.198;27.916;2022-08-14T01:03:36;108166.95;;;-143.34;100.00
20636;BME280;10477;43.198;27.916;2022-08-14T01:06:10;108166.95;;;-143.34;100.00
20636;BME280;10477;43.198;27.916;2022-08-14T01:08:42;108296.55;;;-143.34;100.00
20636;BME280;10477;43.198;27.916;2022-08-14T01:11:12;108166.95;;;-143.34;100.00
20636;BME280;10477;43.198;27.916;2022-08-14T01:13:43;107519.05;;;-143.34;100.00
20636;BME280;10477;43.198;27.916;2022-08-14T01:16:13;107000.80;;;-143.34;100.00
20636;BME280;10477;43.198;27.916;2022-08-14T01:18:42;106612.16;;;-143.34;100.00
20636;BME280;10477;43.198;27.916;2022-08-14T01:21:33;106353.09;;;-143.34;100.00
20636;BME280;10477;43.198;27.916;2022-08-14T01:24:03;105446.53;;;-143.34;100.00
20636;BME280;10477;43.198;27.916;2022-08-14T01:26:33;104151.83;;;-143.34;100.00
20636;BME280;10477;43.198;27.916;2022-08-14T01:29:04;103116.41;;;-143.34;100.00
20636;BME280;10477;43.198;27.916;2022-08-14T01:31:34;101822.58;;;-143.34;100.00
20636;BME280;10477;43.198;27.916;2022-08-14T01:34:10;101046.50;;;-143.34;100.00
20636;BME280;10477;43.198;27.916;2022-08-14T01:36:38;100917.17;;;-143.34;100.00
20636;BME280;10477;43.198;27.916;2022-08-14T01:39:12;101046.50;;;-143.34;100.00
20636;BME280;10477;43.198;27.916;2022-08-14T01:41:37;101305.17;;;-143.34;100.00
20636;BME280;10477;43.198;27.916;2022-08-14T01:44:10;101563.87;;;-143.34;100.00
20636;BME280;10477;43.198;27.916;2022-08-14T01:46:39;101434.52;;;-143.34;100.00
20636;BME280;10477;43.198;27.916;2022-08-14T01:49:10;101822.58;;;-143.34;100.00
20636;BME280;10477;43.198;27.916;2022-08-14T01:51:38;102210.67;;;-143.34;100.00
20636;BME280;10477;43.198;27.916;2022-08-14T01:54:09;102598.81;;;-143.34;100.00
20636;BME280;10477;43.198;27.916;2022-08-14T01:56:38;102987.00;;;-143.34;100.00
20636;BME280;10477;43.198;27.916;2022-08-14T02:01:48;104022.38;;;-143.34;100.00
20636;BME280;10477;43.198;27.916;2022-08-14T02:04:18;104281.27;;;-143.34;100.00
20636;BME280;10477;43.198;27.916;2022-08-14T02:06:47;104540.19;;;-143.34;100.00
20636;BME280;10477;43.198;27.916;2022-08-14T02:09:17;105058.06;;;-143.34;100.00
20636;BME280;10477;43.198;27.916;2022-08-14T02:11:46;105446.53;;;-143.34;100.00
20636;BME280;10477;43.198;27.916;2022-08-14T02:14:16;105835.03;;;-143.34;100.00
20636;BME280;10477;43.198;27.916;2022-08-14T02:16:48;106094.05;;;-143.34;100.00
20636;BME280;10477;43.198;27.916;2022-08-14T02:19:23;106353.09;;;-143.34;100.00
20636;BME280;10477;43.198;27.916;2022-08-14T02:21:55;106612.16;;;-143.34;100.00
20636;BME280;10477;43.198;27.916;2022-08-14T02:24:26;107000.80;;;-143.34;100.00
20636;BME280;10477;43.198;27.916;2022-08-14T02:26:58;107259.91;;;-143.34;100.00
20636;BME280;10477;43.198;27.916;2022-08-14T02:29:29;107519.05;;;-143.34;100.00
20636;BME280;10477;43.198;27.916;2022-08-14T02:31:59;107778.20;;;-143.34;100.00
20636;BME280;10477;43.198;27.916;2022-08-14T02:34:34;108037.36;;;-143.34;100.00
20636;BME280;10477;43.198;27.916;2022-08-14T02:37:06;108296.55;;;-143.34;100.00
20636;BME280;10477;43.198;27.916;2022-08-14T02:39:38;108685.38;;;-143.34;100.00
20636;BME280;10477;43.198;27.916;2022-08-14T02:42:09;109074.24;;;-143.34;100.00
20636;BME280;10477;43.198;27.916;2022-08-14T02:44:39;109203.88;;;-143.34;100.00
20636;BME280;10477;43.198;27.916;2022-08-14T02:47:07;109203.88;;;-143.34;100.00
20636;BME280;10477;43.198;27.916;2022-08-14T02:49:36;109333.50;;;-143.34;100.00
20636;BME280;10477;43.198;27.916;2022-08-14T02:52:04;109203.88;;;-143.34;100.00
20636;BME280;10477;43.198;27.916;2022-08-14T02:54:33;109333.50;;;-143.34;100.00
20636;BME280;10477;43.198;27.916;2022-08-14T02:57:02;109203.88;;;-143.34;100.00
20636;BME280;10477;43.198;27.916;2022-08-14T02:59:34;109074.24;;;-143.34;100.00
20636;BME280;10477;43.198;27.916;2022-08-14T03:02:04;109074.24;;;-143.34;100.00
20636;BME280;10477;43.198;27.916;2022-08-14T03:04:34;109074.24;;;-143.34;100.00
20636;BME280;10477;43.198;27.916;2022-08-14T03:07:02;109074.24;;;-143.34;100.00
20636;BME280;10477;43.198;27.916;2022-08-14T03:09:29;109203.88;;;-143.34;100.00
20636;BME280;10477;43.198;27.916;2022-08-14T03:11:58;109463.14;;;-143.34;100.00
20636;BME280;10477;43.198;27.916;2022-08-14T03:14:27;109722.44;;;-143.34;100.00
20636;BME280;10477;43.198;27.916;2022-08-14T03:16:55;109981.76;;;-143.34;100.00
20636;BME280;10477;43.198;27.916;2022-08-14T03:19:23;110241.09;;;-143.34;100.00
20636;BME280;10477;43.198;27.916;2022-08-14T03:21:50;110500.45;;;-143.34;100.00
20636;BME280;10477;43.198;27.916;2022-08-14T03:24:19;110630.13;;;-143.34;100.00
20636;BME280;10477;43.198;27.916;2022-08-14T03:26:48;110630.13;;;-143.34;100.00
20636;BME280;10477;43.198;27.916;2022-08-14T03:29:17;110759.82;;;-143.34;100.00
20636;BME280;10477;43.198;27.916;2022-08-14T03:31:48;110759.82;;;-143.34;100.00
20636;BME280;10477;43.198;27.916;2022-08-14T03:34:17;110759.82;;;-143.34;100.00
20636;BME280;10477;43.198;27.916;2022-08-14T03:36:47;110630.13;;;-143.34;100.00
20636;BME280;10477;43.198;27.916;2022-08-14T03:39:18;110241.09;;;-143.34;100.00
20636;BME280;10477;43.198;27.916;2022-08-14T03:41:48;109722.44;;;-143.34;100.00
20636;BME280;10477;43.198;27.916;2022-08-14T03:44:16;109074.24;;;-143.34;100.00
20636;BME280;10477;43.198;27.916;2022-08-14T03:46:43;108296.55;;;-143.34;100.00
20636;BME280;10477;43.198;27.916;2022-08-14T03:49:11;107130.36;;;-143.34;100.00
20636;BME280;10477;43.198;27.916;2022-08-14T03:51:39;106094.05;;;-143.34;100.00
20636;BME280;10477;43.198;27.916;2022-08-14T03:54:09;105058.06;;;-143.34;100.00
20636;BME280;10477;43.198;27.916;2022-08-14T03:56:38;103504.66;;;-143.34;100.00
20636;BME280;10477;43.198;27.916;2022-08-14T03:59:09;101693.22;;;-143.34;100.00
20636;BME280;10477;43.198;27.916;2022-08-14T04:01:38;100399.91;;;-143.34;100.00
20636;BME280;10477;43.198;27.916;2022-08-14T04:04:07;98590.09;;;-143.34;100.00
20636;BME280;10477;43.198;27.916;2022-08-14T04:06:36;97943.95;;;-143.34;100.00
20636;BME280;10477;43.198;27.916;2022-08-14T04:09:06;97297.94;;;-143.34;100.00
20636;BME280;10477;43.198;27.916;2022-08-14T04:11:35;96264.56;;;-143.34;100.00
20636;BME280;10477;43.198;27.916;2022-08-14T04:14:04;95489.73;;;-143.34;100.00
20636;BME280;10477;43.198;27.916;2022-08-14T04:16:33;94327.81;;;-143.34;100.00
20636;BME280;10477;43.198;27.916;2022-08-14T04:19:01;93424.36;;;-143.34;100.00
20636;BME280;10477;43.198;27.916;2022-08-14T04:21:30;92134.13;;;-143.34;100.00
20636;BME280;10477;43.198;27.916;2022-08-14T04:24:00;90328.61;;;-143.34;100.00
20636;BME280;10477;43.198;27.916;2022-08-14T04:26:29;89039.53;;;-143.34;100.00
20636;BME280;10477;43.198;27.916;2022-08-14T04:28:57;87106.81;;;-143.34;100.00
20636;BME280;10477;43.198;27.916;2022-08-14T04:31:26;86591.61;;;-143.34;100.00
20636;BME280;10477;43.198;27.916;2022-08-14T04:33:53;86591.61;;;-143.34;100.00
20636;BME280;10477;43.198;27.916;2022-08-14T04:36:21;84917.72;;;-143.34;100.00
20636;BME280;10477;43.198;27.916;2022-08-14T04:38:49;80929.39;;;-143.34;100.00
20636;BME280;10477;43.198;27.916;2022-08-14T04:41:35;75533.23;;;-143.34;100.00
20636;BME280;10477;43.198;27.916;2022-08-14T04:44:21;72966.59;;;-143.34;100.00
20636;BME280;10477;43.198;27.916;2022-08-14T04:46:48;76303.59;;;-143.34;100.00
20636;BME280;10477;43.198;27.916;2022-08-14T04:49:34;80029.44;;;-143.34;100.00
20636;BME280;10477;43.198;27.916;2022-08-14T04:52:03;82987.30;;;-143.34;100.00
20636;BME280;10477;43.198;27.916;2022-08-14T04:54:30;87235.63;;;-143.34;100.00
20636;BME280;10477;43.198;27.916;2022-08-14T04:56:58;89812.92;;;-143.34;100.00
20636;BME280;10477;43.198;27.916;2022-08-14T04:59:26;91231.25;;;-143.34;100.00
20636;BME280;10477;43.198;27.916;2022-08-14T05:01:53;90715.43;;;-143.34;100.00
20636;BME280;10477;43.198;27.916;2022-08-14T05:04:23;88266.32;;;-143.34;100.00
20636;BME280;10477;43.198;27.916;2022-08-14T05:06:53;88137.47;;;-143.34;100.00
20636;BME280;10477;43.198;27.916;2022-08-14T05:09:22;86849.20;;;-143.34;100.00
20636;BME280;10477;43.198;27.916;2022-08-14T05:11:50;85561.42;;;-143.34;100.00
20636;BME280;10477;43.198;27.916;2022-08-14T05:14:19;85561.42;;;-143.34;100.00
20636;BME280;10477;43.198;27.916;2022-08-14T05:16:48;85690.18;;;-143.34;100.00
20636;BME280;10477;43.198;27.916;2022-08-14T05:19:19;82987.30;;;-143.34;100.00
20636;BME280;10477;43.198;27.916;2022-08-14T05:21:47;82344.08;;;-143.34;100.00
20636;BME280;10477;43.198;27.916;2022-08-14T05:24:16;82987.30;;;-143.34;100.00
20636;BME280;10477;43.198;27.916;2022-08-14T05:26:44;82086.81;;;-143.34;100.00
20636;BME280;10477;43.198;27.916;2022-08-14T05:29:13;81315.16;;;-143.34;100.00
20636;BME280;10477;43.198;27.916;2022-08-14T05:31:42;76432.00;;;-143.34;100.00
20636;BME280;10477;43.198;27.916;2022-08-14T05:34:12;73993.02;;;-143.34;100.00
20636;BME280;10477;43.198;27.916;2022-08-14T05:36:40;71812.25;;;-143.34;100.00
20636;BME280;10477;43.198;27.916;2022-08-14T05:39:08;69761.02;;;-143.34;100.00
20636;BME280;10477;43.198;27.916;2022-08-14T05:41:36;65918.30;;;-143.34;100.00
20636;BME280;10477;43.198;27.916;2022-08-14T05:44:03;61312.73;;;-143.34;100.00
20636;BME280;10477;43.198;27.916;2022-08-14T05:46:31;54288.47;;;-143.34;100.00
20636;BME280;10477;43.198;27.916;2022-08-14T05:48:59;50718.07;;;-143.34;100.00
20636;BME280;10477;43.198;27.916;2022-08-14T05:51:27;47151.68;;;-143.34;100.00
20636;BME280;10477;43.198;27.916;2022-08-14T05:53:55;41173.30;;;-143.34;100.00
20636;BME280;10477;43.198;27.916;2022-08-14T05:56:24;37743.71;;;-143.34;100.00
20636;BME280;10477;43.198;27.916;2022-08-14T05:58:52;36093.68;;;-143.34;100.00
20636;BME280;10477;43.198;27.916;2022-08-14T06:01:21;21532.58;;;-143.34;100.00
20636;BME280;10477;43.198;27.916;2022-08-14T06:03:49;-5269.26;;;-143.34;100.00
20636;BME280;10477;43.198;27.916;2022-08-14T06:06:18;-17103.08;;;-143.34;100.00
20636;BME280;10477;43.198;27.916;2022-08-14T06:08:45;-17276.47;;;-143.34;100.00
20636;BME280;10477;43.198;27.916;2022-08-14T06:11:13;-17276.47;;;-143.34;100.00
20636;BME280;10477;43.198;27.916;2022-08-14T06:13:42;-17276.47;;;-143.34;100.00
20636;BME280;10477;43.198;27.916;2022-08-14T06:16:10;-17276.47;;;-143.34;100.00
20636;BME280;10477;43.198;27.916;2022-08-14T06:18:37;-17276.47;;;-143.34;100.00
20636;BME280;10477;43.198;27.916;2022-08-14T06:21:05;-17276.47;;;-143.34;100.00
20636;BME280;10477;43.198;27.916;2022-08-14T06:23:33;-17276.47;;;-143.34;100.00
20636;BME280;10477;43.198;27.916;2022-08-14T06:26:01;-17276.47;;;-143.34;100.00
20636;BME280;10477;43.198;27.916;2022-08-14T06:28:30;-17276.47;;;-143.34;100.00
20636;BME280;10477;43.198;27.916;2022-08-14T06:30:58;-17276.47;;;-143.34;100.00
20636;BME280;10477;43.198;27.916;2022-08-14T06:33:26;-17276.47;;;-143.34;100.00
20636;BME280;10477;43.198;27.916;2022-08-14T06:35:53;-17276.47;;;-143.34;100.00
20636;BME280;10477;43.198;27.916;2022-08-14T06:38:22;-17276.47;;;-143.34;100.00
20636;BME280;10477;43.198;27.916;2022-08-14T06:40:52;-17276.47;;;-143.34;100.00
20636;BME280;10477;43.198;27.916;2022-08-14T06:43:20;-17276.47;;;-143.34;100.00
20636;BME280;10477;43.198;27.916;2022-08-14T06:45:49;-17276.47;;;-143.34;100.00
20636;BME280;10477;43.198;27.916;2022-08-14T06:48:19;-17276.47;;;-143.34;100.00
20636;BME280;10477;43.198;27.916;2022-08-14T06:50:51;-17276.47;;;-143.34;100.00
20636;BME280;10477;43.198;27.916;2022-08-14T06:53:19;-17276.47;;;-143.34;100.00
20636;BME280;10477;43.198;27.916;2022-08-14T06:55:47;-17276.47;;;-143.34;100.00
20636;BME280;10477;43.198;27.916;2022-08-14T06:58:17;-17276.47;;;-143.34;100.00
20636;BME280;10477;43.198;27.916;2022-08-14T07:00:47;-17276.47;;;-143.34;100.00
20636;BME280;10477;43.198;27.916;2022-08-14T07:03:33;-17276.47;;;-143.34;100.00
20636;BME280;10477;43.198;27.916;2022-08-14T07:06:19;-17276.47;;;-143.34;100.00
20636;BME280;10477;43.198;27.916;2022-08-14T07:08:51;-17276.47;;;-143.34;100.00
20636;BME280;10477;43.198;27.916;2022-08-14T07:11:19;-17276.47;;;-143.34;100.00
20636;BME280;10477;43.198;27.916;2022-08-14T07:13:48;-17276.47;;;-143.34;100.00
20636;BME280;10477;43.198;27.916;2022-08-14T07:16:17;-17276.47;;;-143.34;100.00
20636;BME280;10477;43.198;27.916;2022-08-14T07:18:44;-17276.47;;;-143.34;100.00
20636;BME280;10477;43.198;27.916;2022-08-14T07:21:13;-17276.47;;;-143.34;100.00
20636;BME280;10477;43.198;27.916;2022-08-14T07:23:41;-17276.47;;;-143.34;100.00
20636;BME280;10477;43.198;27.916;2022-08-14T07:26:10;-17276.47;;;-143.34;100.00
20636;BME280;10477;43.198;27.916;2022-08-14T07:28:39;-17276.47;;;-143.34;100.00
20636;BME280;10477;43.198;27.916;2022-08-14T07:31:11;-17276.47;;;-143.34;100.00
20636;BME280;10477;43.198;27.916;2022-08-14T07:33:44;-17276.47;;;-143.34;100.00
20636;BME280;10477;43.198;27.916;2022-08-14T07:36:14;-17276.47;;;-143.34;100.00
20636;BME280;10477;43.198;27.916;2022-08-14T07:38:42;-17276.47;;;-143.34;100.00
20636;BME280;10477;43.198;27.916;2022-08-14T07:41:11;-17276.47;;;-143.34;100.00
20636;BME280;10477;43.198;27.916;2022-08-14T07:43:40;-17276.47;;;-143.34;100.00
20636;BME280;10477;43.198;27.916;2022-08-14T07:46:08;-17276.47;;;-143.34;100.00
20636;BME280;10477;43.198;27.916;2022-08-14T07:48:39;-17276.47;;;-143.34;100.00
20636;BME280;10477;43.198;27.916;2022-08-14T07:51:08;-17276.47;;;-143.34;100.00
20636;BME280;10477;43.198;27.916;2022-08-14T07:53:37;-17276.47;;;-143.34;100.00
20636;BME280;10477;43.198;27.916;2022-08-14T07:56:06;-17276.47;;;-143.34;100.00
20636;BME280;10477;43.198;27.916;2022-08-14T07:58:36;-17276.47;;;-143.34;100.00
20636;BME280;10477;43.198;27.916;2022-08-14T08:01:06;-17276.47;;;-143.34;100.00
20636;BME280;10477;43.198;27.916;2022-08-14T08:03:37;-17276.47;;;-143.34;100.00
20636;BME280;10477;43.198;27.916;2022-08-14T08:06:06;-17276.47;;;-143.34;100.00
20636;BME280;10477;43.198;27.916;2022-08-14T08:08:34;-17276.47;;;-143.34;100.00
20636;BME280;10477;43.198;27.916;2022-08-14T08:11:02;-17276.47;;;-143.34;100.00
20636;BME280;10477;43.198;27.916;2022-08-14T08:13:33;-17276.47;;;-143.34;100.00
20636;BME280;10477;43.198;27.916;2022-08-14T08:16:05;-17276.47;;;-143.34;100.00
20636;BME280;10477;43.198;27.916;2022-08-14T08:18:33;-17276.47;;;-143.34;100.00
20636;BME280;10477;43.198;27.916;2022-08-14T08:21:01;-17276.47;;;-143.34;100.00
20636;BME280;10477;43.198;27.916;2022-08-14T08:23:30;-17276.47;;;-143.34;100.00
20636;BME280;10477;43.198;27.916;2022-08-14T08:26:01;-17276.47;;;-143.34;100.00
20636;BME280;10477;43.198;27.916;2022-08-14T08:28:30;-17276.47;;;-143.34;100.00
20636;BME280;10477;43.198;27.916;2022-08-14T08:30:59;-17276.47;;;-143.34;100.00
20636;BME280;10477;43.198;27.916;2022-08-14T08:33:31;-17276.47;;;-143.34;100.00
20636;BME280;10477;43.198;27.916;2022-08-14T08:36:06;-17276.47;;;-143.34;100.00
20636;BME280;10477;43.198;27.916;2022-08-14T08:38:34;-17276.47;;;-143.34;100.00
20636;BME280;10477;43.198;27.916;2022-08-14T08:41:02;-17276.47;;;-143.34;100.00
20636;BME280;10477;43.198;27.916;2022-08-14T08:43:32;-17276.47;;;-143.34;100.00
20636;BME280;10477;43.198;27.916;2022-08-14T08:46:02;-17276.47;;;-143.34;100.00
20636;BME280;10477;43.198;27.916;2022-08-14T08:48:48;-17276.47;;;-143.34;100.00
20636;BME280;10477;43.198;27.916;2022-08-14T08:51:24;-17276.47;;;-143.34;100.00
20636;BME280;10477;43.198;27.916;2022-08-14T08:54:02;-17276.47;;;-143.34;100.00
20636;BME280;10477;43.198;27.916;2022-08-14T08:59:24;-17276.47;;;-143.34;100.00
20636;BME280;10477;43.198;27.916;2022-08-14T09:04:28;-17276.47;;;-143.34;100.00
20636;BME280;10477;43.198;27.916;2022-08-14T09:06:56;-17276.47;;;-143.34;100.00
20636;BME280;10477;43.198;27.916;2022-08-14T09:09:27;-17276.47;;;-143.34;100.00
20636;BME280;10477;43.198;27.916;2022-08-14T09:11:58;-17276.47;;;-143.34;100.00
20636;BME280;10477;43.198;27.916;2022-08-14T09:14:28;-17276.47;;;-143.34;100.00
20636;BME280;10477;43.198;27.916;2022-08-14T09:16:58;-17276.47;;;-143.34;100.00
20636;BME280;10477;43.198;27.916;2022-08-14T09:19:27;-17276.47;;;-143.34;100.00
20636;BME280;10477;43.198;27.916;2022-08-14T09:21:55;-17276.47;;;-143.34;100.00
20636;BME280;10477;43.198;27.916;2022-08-14T09:24:23;-17276.47;;;-143.34;100.00
20636;BME280;10477;43.198;27.916;2022-08-14T09:26:51;-17276.47;;;-143.34;100.00
20636;BME280;10477;43.198;27.916;2022-08-14T09:29:20;-17276.47;;;-143.34;100.00
20636;BME280;10477;43.198;27.916;2022-08-14T09:31:57;-17276.47;;;-143.34;100.00
20636;BME280;10477;43.198;27.916;2022-08-14T09:37:26;-17276.47;;;-143.34;100.00
20636;BME280;10477;43.198;27.916;2022-08-14T09:43:02;-17276.47;;;-143.34;100.00
20636;BME280;10477;43.198;27.916;2022-08-14T09:45:45;-17276.47;;;-143.34;100.00
20636;BME280;10477;43.198;27.916;2022-08-14T09:48:18;-17276.47;;;-143.34;100.00
20636;BME280;10477;43.198;27.916;2022-08-14T09:50:54;-17276.47;;;-143.34;100.00
20636;BME280;10477;43.198;27.916;2022-08-14T09:53:37;-17276.47;;;-143.34;100.00
20636;BME280;10477;43.198;27.916;2022-08-14T09:56:08;-17276.47;;;-143.34;100.00
20636;BME280;10477;43.198;27.916;2022-08-14T09:58:45;-17276.47;;;-143.34;100.00
20636;BME280;10477;43.198;27.916;2022-08-14T10:01:18;-17276.47;;;-143.34;100.00
20636;BME280;10477;43.198;27.916;2022-08-14T10:03:49;-17276.47;;;-143.34;100.00
20636;BME280;10477;43.198;27.916;2022-08-14T10:06:25;-17276.47;;;-143.34;100.00
20636;BME280;10477;43.198;27.916;2022-08-14T10:09:06;-17276.47;;;-143.34;100.00
20636;BME280;10477;43.198;27.916;2022-08-14T10:11:35;-17276.47;;;-143.34;100.00
20636;BME280;10477;43.198;27.916;2022-08-14T10:14:18;-17276.47;;;-143.34;100.00
20636;BME280;10477;43.198;27.916;2022-08-14T10:16:48;-17276.47;;;-143.34;100.00
20636;BME280;10477;43.198;27.916;2022-08-14T10:19:22;-17276.47;;;-143.34;100.00
20636;BME280;10477;43.198;27.916;2022-08-14T10:21:58;-17276.47;;;-143.34;100.00
20636;BME280;10477;43.198;27.916;2022-08-14T10:24:32;-17276.47;;;-143.34;100.00
20636;BME280;10477;43.198;27.916;2022-08-14T10:27:01;-17276.47;;;-143.34;100.00
20636;BME280;10477;43.198;27.916;2022-08-14T10:29:36;-17276.47;;;-143.34;100.00
20636;BME280;10477;43.198;27.916;2022-08-14T10:32:06;-17276.47;;;-143.34;100.00
20636;BME280;10477;43.198;27.916;2022-08-14T10:34:37;-17276.47;;;-143.34;100.00
20636;BME280;10477;43.198;27.916;2022-08-14T10:39:38;-17276.47;;;-143.34;100.00
20636;BME280;10477;43.198;27.916;2022-08-14T10:42:12;-17276.47;;;-143.34;100.00
20636;BME280;10477;43.198;27.916;2022-08-14T10:44:42;-17276.47;;;-143.34;100.00
20636;BME280;10477;43.198;27.916;2022-08-14T10:47:12;-17276.47;;;-143.34;100.00
20636;BME280;10477;43.198;27.916;2022-08-14T10:50:04;-17276.47;;;-143.34;100.00
20636;BME280;10477;43.198;27.916;2022-08-14T10:52:30;-17276.47;;;-143.34;100.00
20636;BME280;10477;43.198;27.916;2022-08-14T10:55:10;-17276.47;;;-143.34;100.00
20636;BME280;10477;43.198;27.916;2022-08-14T10:57:52;-17276.47;;;-143.34;100.00
20636;BME280;10477;43.198;27.916;2022-08-14T11:00:20;-17276.47;;;-143.34;100.00
20636;BME280;10477;43.198;27.916;2022-08-14T11:03:05;-17276.47;;;-143.34;100.00
20636;BME280;10477;43.198;27.916;2022-08-14T11:05:42;-17276.47;;;-143.34;100.00
20636;BME280;10477;43.198;27.916;2022-08-14T11:08:12;-17276.47;;;-143.34;100.00
20636;BME280;10477;43.198;27.916;2022-08-14T11:10:44;-17276.47;;;-143.34;100.00
20636;BME280;10477;43.198;27.916;2022-08-14T11:13:18;-17276.47;;;-143.34;100.00
20636;BME280;10477;43.198;27.916;2022-08-14T11:15:47;-17276.47;;;-143.34;100.00
20636;BME280;10477;43.198;27.916;2022-08-14T11:18:16;-17276.47;;;-143.34;100.00
20636;BME280;10477;43.198;27.916;2022-08-14T11:20:49;-17276.47;;;-143.34;100.00
20636;BME280;10477;43.198;27.916;2022-08-14T11:23:20;-17276.47;;;-143.34;100.00
20636;BME280;10477;43.198;27.916;2022-08-14T11:25:49;-17276.47;;;-143.34;100.00
20636;BME280;10477;43.198;27.916;2022-08-14T11:28:21;-17276.47;;;-143.34;100.00
20636;BME280;10477;43.198;27.916;2022-08-14T11:30:50;-17276.47;;;-143.34;100.00
20636;BME280;10477;43.198;27.916;2022-08-14T11:33:25;-17276.47;;;-143.34;100.00
20636;BME280;10477;43.198;27.916;2022-08-14T11:36:03;-17276.47;;;-143.34;100.00
20636;BME280;10477;43.198;27.916;2022-08-14T11:38:34;-17276.47;;;-143.34;100.00
20636;BME280;10477;43.198;27.916;2022-08-14T11:40:59;-17276.47;;;-143.34;100.00
20636;BME280;10477;43.198;27.916;2022-08-14T11:43:27;-17276.47;;;-143.34;100.00
20636;BME280;10477;43.198;27.916;2022-08-14T11:45:55;-17276.47;;;-143.34;100.00
20636;BME280;10477;43.198;27.916;2022-08-14T11:48:24;-17276.47;;;-143.34;100.00
20636;BME280;10477;43.198;27.916;2022-08-14T11:50:53;-17276.47;;;-143.34;100.00
20636;BME280;10477;43.198;27.916;2022-08-14T11:53:27;-17276.47;;;-143.34;100.00
20636;BME280;10477;43.198;27.916;2022-08-14T11:56:04;-17276.47;;;-143.34;100.00
20636;BME280;10477;43.198;27.916;2022-08-14T11:58:34;-17276.47;;;-143.34;100.00
20636;BME280;10477;43.198;27.916;2022-08-14T12:01:05;-17276.47;;;-143.34;100.00
20636;BME280;10477;43.198;27.916;2022-08-14T12:03:41;-17276.47;;;-143.34;100.00
20636;BME280;10477;43.198;27.916;2022-08-14T12:06:16;-17276.47;;;-143.34;100.00
20636;BME280;10477;43.198;27.916;2022-08-14T12:08:40;-17276.47;;;-143.34;100.00
20636;BME280;10477;43.198;27.916;2022-08-14T12:11:11;-17276.47;;;-143.34;100.00
20636;BME280;10477;43.198;27.916;2022-08-14T12:13:40;-17276.47;;;-143.34;100.00
20636;BME280;10477;43.198;27.916;2022-08-14T12:16:11;-17276.47;;;-143.34;100.00
20636;BME280;10477;43.198;27.916;2022-08-14T12:18:41;-17276.47;;;-143.34;100.00
20636;BME280;10477;43.198;27.916;2022-08-14T12:23:41;-17276.47;;;-143.34;100.00
20636;BME280;10477;43.198;27.916;2022-08-14T12:26:14;-17276.47;;;-143.34;100.00
20636;BME280;10477;43.198;27.916;2022-08-14T12:28:49;-17276.47;;;-143.34;100.00
20636;BME280;10477;43.198;27.916;2022-08-14T12:31:19;-17276.47;;;-143.34;100.00
20636;BME280;10477;43.198;27.916;2022-08-14T12:34:01;-17276.47;;;-143.34;100.00
20636;BME280;10477;43.198;27.916;2022-08-14T12:36:26;-17276.47;;;-143.34;100.00
20636;BME280;10477;43.198;27.916;2022-08-14T12:38:57;-17276.47;;;-143.34;100.00
20636;BME280;10477;43.198;27.916;2022-08-14T12:41:28;-17276.47;;;-143.34;100.00
20636;BME280;10477;43.198;27.916;2022-08-14T12:44:02;-17276.47;;;-143.34;100.00
20636;BME280;10477;43.198;27.916;2022-08-14T12:46:38;-17276.47;;;-143.34;100.00
20636;BME280;10477;43.198;27.916;2022-08-14T12:49:15;-17276.47;;;-143.34;100.00